createdAt,value
2018-09-03T00:00:53.760Z,15.70
2018-09-03T00:03:22.083Z,15.80
2018-09-03T00:05:50.423Z,15.70
2018-09-03T00:08:18.771Z,15.70
2018-09-03T00:10:47.092Z,15.70
2018-09-03T00:13:15.418Z,15.70
2018-09-03T00:15:43.772Z,15.70
2018-09-03T00:18:12.160Z,15.70
2018-09-03T00:20:40.476Z,15.70
2018-09-03T00:23:08.796Z,15.70
2018-09-03T00:25:37.106Z,15.80
2018-09-03T00:28:05.510Z,15.80
2018-09-03T00:30:33.816Z,15.70
2018-09-03T00:33:07.726Z,15.70
2018-09-03T00:35:41.532Z,15.80
2018-09-03T00:38:15.224Z,15.70
2018-09-03T00:40:48.920Z,15.70
2018-09-03T00:43:22.628Z,15.60
2018-09-03T00:45:56.268Z,15.50
2018-09-03T00:48:24.596Z,15.50
2018-09-03T00:50:52.896Z,15.60
2018-09-03T00:53:21.224Z,15.60
2018-09-03T00:55:49.569Z,15.60
2018-09-03T00:58:17.936Z,15.60
2018-09-03T01:00:46.340Z,15.80
2018-09-03T01:03:14.672Z,15.90
2018-09-03T01:05:42.999Z,16.10
2018-09-03T01:08:11.323Z,16.10
2018-09-03T01:10:39.685Z,16.00
2018-09-03T01:13:07.972Z,16.00
2018-09-03T01:15:36.280Z,16.10
2018-09-03T01:18:04.636Z,16.00
2018-09-03T01:20:33.030Z,15.80
2018-09-03T01:23:01.361Z,15.70
2018-09-03T01:25:29.672Z,15.60
2018-09-03T01:27:57.996Z,15.50
2018-09-03T01:30:26.299Z,15.50
2018-09-03T01:32:54.622Z,15.40
2018-09-03T01:35:22.939Z,15.40
2018-09-03T01:37:51.272Z,15.50
2018-09-03T01:40:19.576Z,15.70
2018-09-03T01:42:47.898Z,15.70
2018-09-03T01:45:16.219Z,15.70
2018-09-03T01:47:44.555Z,15.70
2018-09-03T01:50:12.864Z,15.60
2018-09-03T01:52:41.189Z,15.60
2018-09-03T01:55:09.560Z,15.60
2018-09-03T01:57:37.913Z,15.60
2018-09-03T02:00:06.263Z,15.70
2018-09-03T02:02:34.591Z,15.80
2018-09-03T02:05:02.913Z,16.00
2018-09-03T02:07:31.256Z,16.10
2018-09-03T02:09:59.572Z,16.00
2018-09-03T02:12:27.896Z,16.10
2018-09-03T02:14:56.199Z,16.10
2018-09-03T02:17:24.540Z,15.90
2018-09-03T02:19:52.847Z,15.70
2018-09-03T02:22:21.175Z,15.50
2018-09-03T02:24:49.480Z,15.30
2018-09-03T02:27:17.821Z,15.40
2018-09-03T02:29:46.137Z,15.40
2018-09-03T02:32:14.468Z,15.30
2018-09-03T02:34:42.777Z,15.20
2018-09-03T02:37:11.112Z,15.40
2018-09-03T02:39:39.420Z,15.60
2018-09-03T02:42:07.772Z,15.70
2018-09-03T02:44:36.076Z,15.60
2018-09-03T02:47:04.443Z,15.50
2018-09-03T02:49:32.757Z,15.40
2018-09-03T02:52:01.108Z,15.50
2018-09-03T02:54:29.433Z,15.60
2018-09-03T02:56:57.750Z,15.70
2018-09-03T02:59:26.089Z,15.90
2018-09-03T03:01:54.422Z,16.00
2018-09-03T03:04:22.763Z,15.90
2018-09-03T03:06:51.152Z,15.70
2018-09-03T03:09:19.476Z,15.70
2018-09-03T03:11:47.796Z,15.60
2018-09-03T03:14:16.235Z,15.60
2018-09-03T03:16:44.544Z,15.50
2018-09-03T03:19:12.888Z,15.50
2018-09-03T03:21:41.193Z,15.50
2018-09-03T03:24:09.521Z,15.50
2018-09-03T03:26:37.837Z,15.40
2018-09-03T03:29:06.178Z,15.50
2018-09-03T03:31:34.492Z,15.60
2018-09-03T03:34:02.820Z,15.60
2018-09-03T03:36:31.125Z,15.50
2018-09-03T03:38:59.448Z,15.60
2018-09-03T03:41:27.776Z,15.60
2018-09-03T03:43:56.095Z,15.60
2018-09-03T03:46:24.431Z,15.60
2018-09-03T03:48:52.748Z,15.60
2018-09-03T03:51:21.067Z,15.80
2018-09-03T03:53:49.388Z,15.80
2018-09-03T03:56:17.693Z,15.90
2018-09-03T03:58:46.040Z,16.10
2018-09-03T04:01:14.652Z,16.20
2018-09-03T04:03:42.990Z,16.10
2018-09-03T04:06:11.420Z,15.90
2018-09-03T04:08:39.847Z,15.70
2018-09-03T04:11:08.169Z,15.80
2018-09-03T04:13:36.488Z,15.80
2018-09-03T04:16:04.823Z,15.60
2018-09-03T04:18:33.141Z,15.50
2018-09-03T04:21:01.460Z,15.50
2018-09-03T04:23:29.970Z,15.50
2018-09-03T04:25:58.144Z,15.80
2018-09-03T04:28:26.472Z,15.80
2018-09-03T04:30:54.811Z,15.90
2018-09-03T04:33:23.139Z,16.00
2018-09-03T04:35:51.448Z,16.10
2018-09-03T04:38:19.772Z,16.10
2018-09-03T04:40:48.092Z,16.20
2018-09-03T04:43:16.423Z,16.10
2018-09-03T04:45:44.741Z,16.00
2018-09-03T04:48:13.148Z,15.90
2018-09-03T04:50:41.451Z,15.90
2018-09-03T04:53:09.772Z,16.00
2018-09-03T04:55:38.095Z,16.10
2018-09-03T04:58:06.481Z,16.20
2018-09-03T05:00:34.796Z,16.10
2018-09-03T05:03:03.129Z,16.10
2018-09-03T05:05:31.515Z,16.10
2018-09-03T05:07:59.782Z,16.10
2018-09-03T05:10:28.110Z,16.10
2018-09-03T05:12:56.425Z,16.10
2018-09-03T05:15:24.767Z,16.20
2018-09-03T05:17:53.085Z,16.30
2018-09-03T05:20:21.409Z,16.40
2018-09-03T05:22:49.716Z,16.50
2018-09-03T05:25:18.041Z,16.50
2018-09-03T05:27:46.356Z,16.60
2018-09-03T05:30:14.680Z,16.50
2018-09-03T05:32:42.996Z,16.50
2018-09-03T05:35:11.328Z,16.50
2018-09-03T05:37:39.636Z,16.60
2018-09-03T05:40:08.036Z,16.60
2018-09-03T05:42:36.353Z,16.50
2018-09-03T05:45:05.299Z,16.50
2018-09-03T05:47:33.619Z,16.50
2018-09-03T05:50:02.024Z,16.50
2018-09-03T05:52:30.319Z,16.50
2018-09-03T05:54:58.656Z,16.40
2018-09-03T05:57:27.015Z,16.50
2018-09-03T05:59:55.328Z,16.40
2018-09-03T06:02:23.705Z,16.40
2018-09-03T06:04:52.088Z,16.40
2018-09-03T06:07:20.388Z,16.40
2018-09-03T06:09:48.720Z,16.50
2018-09-03T06:12:17.033Z,16.40
2018-09-03T06:14:45.367Z,16.40
2018-09-03T06:17:13.688Z,16.50
2018-09-03T06:19:42.057Z,16.40
2018-09-03T06:22:10.369Z,16.40
2018-09-03T06:24:38.692Z,16.40
2018-09-03T06:27:07.004Z,16.40
2018-09-03T06:29:35.323Z,16.50
2018-09-03T06:32:03.644Z,16.60
2018-09-03T06:34:31.972Z,16.60
2018-09-03T06:37:00.609Z,16.80
2018-09-03T06:39:28.938Z,16.70
2018-09-03T06:41:57.465Z,16.70
2018-09-03T06:44:25.811Z,16.60
2018-09-03T06:46:54.144Z,16.60
2018-09-03T06:49:22.476Z,16.70
2018-09-03T06:51:50.784Z,16.70
2018-09-03T06:54:19.160Z,16.80
2018-09-03T06:56:47.458Z,16.90
2018-09-03T06:59:15.780Z,16.80
2018-09-03T07:01:44.088Z,16.80
2018-09-03T07:04:12.447Z,16.80
2018-09-03T07:06:40.832Z,16.70
2018-09-03T07:09:10.094Z,16.70
2018-09-03T07:11:38.492Z,16.60
2018-09-03T07:14:06.856Z,16.70
2018-09-03T07:16:35.159Z,16.60
2018-09-03T07:19:03.500Z,16.50
2018-09-03T07:21:31.814Z,16.60
2018-09-03T07:24:00.124Z,16.50
2018-09-03T07:26:28.461Z,16.50
2018-09-03T07:28:56.850Z,16.50
2018-09-03T07:31:25.144Z,16.70
2018-09-03T07:33:53.457Z,16.80
2018-09-03T07:36:21.800Z,16.80
2018-09-03T07:38:50.113Z,16.80
2018-09-03T07:41:18.448Z,16.80
2018-09-03T07:43:46.757Z,16.80
2018-09-03T07:46:15.085Z,16.70
2018-09-03T07:48:43.388Z,16.60
2018-09-03T07:51:11.835Z,16.50
2018-09-03T07:53:40.137Z,16.40
2018-09-03T07:56:08.462Z,16.40
2018-09-03T07:58:36.772Z,16.50
2018-09-03T08:01:05.342Z,16.60
2018-09-03T08:03:33.620Z,16.70
2018-09-03T08:06:01.956Z,16.60
2018-09-03T08:08:30.308Z,16.60
2018-09-03T08:10:58.635Z,16.70
2018-09-03T08:13:32.476Z,16.70
2018-09-03T08:16:00.801Z,16.70
2018-09-03T08:18:29.112Z,16.70
2018-09-03T08:20:57.434Z,16.70
2018-09-03T08:23:25.764Z,16.80
2018-09-03T08:25:54.089Z,16.80
2018-09-03T08:28:22.405Z,16.70
2018-09-03T08:30:50.716Z,16.60
2018-09-03T08:33:19.053Z,16.70
2018-09-03T08:35:47.368Z,16.80
2018-09-03T08:38:15.665Z,16.80
2018-09-03T08:40:43.983Z,16.70
2018-09-03T08:43:12.293Z,16.70
2018-09-03T08:45:40.628Z,16.70
2018-09-03T08:48:08.947Z,16.80
2018-09-03T08:50:37.270Z,16.90
2018-09-03T08:53:05.884Z,16.80
2018-09-03T08:55:34.308Z,16.80
2018-09-03T08:58:02.616Z,16.80
2018-09-03T09:00:30.935Z,16.80
2018-09-03T09:02:59.243Z,16.90
2018-09-03T09:05:27.568Z,16.80
2018-09-03T09:07:55.908Z,16.90
2018-09-03T09:10:24.244Z,17.00
2018-09-03T09:12:52.540Z,16.90
2018-09-03T09:15:20.857Z,16.90
2018-09-03T09:17:49.164Z,16.80
2018-09-03T09:20:17.488Z,16.80
2018-09-03T09:22:45.834Z,16.80
2018-09-03T09:25:14.161Z,16.90
2018-09-03T09:27:42.465Z,17.00
2018-09-03T09:30:10.793Z,17.00
2018-09-03T09:32:39.100Z,16.90
2018-09-03T09:35:07.457Z,16.90
2018-09-03T09:37:35.764Z,17.00
2018-09-03T09:40:04.075Z,17.00
2018-09-03T09:42:32.408Z,17.00
2018-09-03T09:45:00.704Z,16.90
2018-09-03T09:47:29.033Z,17.00
2018-09-03T09:49:57.352Z,17.10
2018-09-03T09:52:25.688Z,17.10
2018-09-03T09:54:54.005Z,17.20
2018-09-03T09:57:22.359Z,17.30
2018-09-03T09:59:50.690Z,17.30
2018-09-03T10:02:19.012Z,17.40
2018-09-03T10:04:47.316Z,17.50
2018-09-03T10:07:15.672Z,17.70
2018-09-03T10:09:43.973Z,17.80
2018-09-03T10:12:12.296Z,17.90
2018-09-03T10:14:40.600Z,17.90
2018-09-03T10:17:08.920Z,17.90
2018-09-03T10:19:37.226Z,17.80
2018-09-03T10:22:05.624Z,17.70
2018-09-03T10:24:33.924Z,17.60
2018-09-03T10:27:02.284Z,17.60
2018-09-03T10:29:30.589Z,17.60
2018-09-03T10:31:58.986Z,17.70
2018-09-03T10:34:27.252Z,17.90
2018-09-03T10:36:55.573Z,18.10
2018-09-03T10:39:23.877Z,18.30
2018-09-03T10:41:52.221Z,18.40
2018-09-03T10:44:20.548Z,18.50
2018-09-03T10:46:49.883Z,18.50
2018-09-03T10:49:18.208Z,18.50
2018-09-03T10:51:46.520Z,18.50
2018-09-03T10:54:14.833Z,18.70
2018-09-03T10:56:43.148Z,18.70
2018-09-03T10:59:11.445Z,18.70
2018-09-03T11:01:39.764Z,18.80
2018-09-03T11:04:08.060Z,18.90
2018-09-03T11:06:36.399Z,18.90
2018-09-03T11:09:07.004Z,18.90
2018-09-03T11:11:35.324Z,18.90
2018-09-03T11:14:03.626Z,19.00
2018-09-03T11:16:32.084Z,19.10
2018-09-03T11:19:00.384Z,19.30
2018-09-03T11:21:28.772Z,19.40
2018-09-03T11:23:57.107Z,19.40
2018-09-03T11:26:25.412Z,19.50
2018-09-03T11:28:53.757Z,19.60
2018-09-03T11:31:22.052Z,19.60
2018-09-03T11:33:50.356Z,19.60
2018-09-03T11:36:18.680Z,19.60
2018-09-03T11:38:46.980Z,19.50
2018-09-03T11:41:15.312Z,19.30
2018-09-03T11:43:43.608Z,19.20
2018-09-03T11:46:11.924Z,19.20
2018-09-03T11:48:40.248Z,19.10
2018-09-03T11:51:08.656Z,19.00
2018-09-03T11:53:36.971Z,18.80
2018-09-03T11:56:05.284Z,18.70
2018-09-03T11:58:33.622Z,18.60
2018-09-03T12:01:01.967Z,18.60
2018-09-03T12:03:30.289Z,18.60
2018-09-03T12:05:58.609Z,18.60
2018-09-03T12:08:26.933Z,18.50
2018-09-03T12:10:55.231Z,18.60
2018-09-03T12:13:23.548Z,18.50
2018-09-03T12:16:24.607Z,18.40
2018-09-03T12:18:54.872Z,18.40
2018-09-03T12:21:23.212Z,18.40
2018-09-03T12:23:51.522Z,18.40
2018-09-03T12:26:19.836Z,18.50
2018-09-03T12:28:48.168Z,18.50
2018-09-03T12:31:16.536Z,18.50
2018-09-03T12:33:44.824Z,18.60
2018-09-03T12:36:13.125Z,18.90
2018-09-03T12:38:41.457Z,19.00
2018-09-03T12:41:09.769Z,19.20
2018-09-03T12:43:38.088Z,19.30
2018-09-03T12:46:07.580Z,19.50
2018-09-03T12:48:35.908Z,19.70
2018-09-03T12:51:04.917Z,20.00
2018-09-03T12:53:33.596Z,20.20
2018-09-03T12:56:02.579Z,20.20
2018-09-03T12:58:30.935Z,20.40
2018-09-03T13:00:59.242Z,20.60
2018-09-03T13:03:27.572Z,20.70
2018-09-03T13:05:55.911Z,20.80
2018-09-03T13:08:24.236Z,20.80
2018-09-03T13:10:52.536Z,20.70
2018-09-03T13:13:20.896Z,20.60
2018-09-03T13:15:49.204Z,20.50
2018-09-03T13:18:17.525Z,20.40
2018-09-03T13:20:45.823Z,20.60
2018-09-03T13:23:14.144Z,20.80
2018-09-03T13:25:42.452Z,20.80
2018-09-03T13:28:10.776Z,20.90
2018-09-03T13:30:39.079Z,20.80
2018-09-03T13:33:07.500Z,20.70
2018-09-03T13:35:35.812Z,20.60
2018-09-03T13:38:04.145Z,20.80
2018-09-03T13:40:32.529Z,21.00
2018-09-03T13:43:01.009Z,21.00
2018-09-03T13:45:29.307Z,20.70
2018-09-03T13:47:57.637Z,20.30
2018-09-03T13:50:25.940Z,20.00
2018-09-03T13:52:54.279Z,19.70
2018-09-03T13:55:22.644Z,19.50
2018-09-03T13:57:51.024Z,19.30
2018-09-03T14:00:19.335Z,19.40
2018-09-03T14:02:47.657Z,19.70
2018-09-03T14:05:15.960Z,19.80
2018-09-03T14:07:44.298Z,19.90
2018-09-03T14:10:12.605Z,19.90
2018-09-03T14:12:41.204Z,19.90
2018-09-03T14:15:09.613Z,19.90
2018-09-03T14:17:38.008Z,20.10
2018-09-03T14:20:06.400Z,20.30
2018-09-03T14:22:34.644Z,20.20
2018-09-03T14:25:02.947Z,20.00
2018-09-03T14:27:31.367Z,19.80
2018-09-03T14:29:59.660Z,19.80
2018-09-03T14:32:28.145Z,19.60
2018-09-03T14:34:56.450Z,19.40
2018-09-03T14:37:24.746Z,19.30
2018-09-03T14:39:53.292Z,19.30
2018-09-03T14:42:21.633Z,19.40
2018-09-03T14:44:51.253Z,19.40
2018-09-03T14:47:19.620Z,19.30
2018-09-03T14:49:47.944Z,19.30
2018-09-03T14:52:16.249Z,19.30
2018-09-03T14:54:44.571Z,19.30
2018-09-03T14:57:12.872Z,19.40
2018-09-03T14:59:41.489Z,19.40
2018-09-03T15:02:09.833Z,19.30
2018-09-03T15:04:38.151Z,19.40
2018-09-03T15:07:06.804Z,19.40
2018-09-03T15:09:35.159Z,19.30
2018-09-03T15:12:03.448Z,19.40
2018-09-03T15:14:33.252Z,19.60
2018-09-03T15:17:02.204Z,19.70
2018-09-03T15:22:07.092Z,20.10
2018-09-03T15:24:37.342Z,20.30
2018-09-03T15:27:05.688Z,20.30
2018-09-03T15:29:37.346Z,20.30
2018-09-03T15:32:05.984Z,20.10
2018-09-03T15:34:34.809Z,19.70
2018-09-03T15:37:05.738Z,19.50
2018-09-03T15:39:34.120Z,19.30
2018-09-03T15:42:02.476Z,19.50
2018-09-03T15:44:32.903Z,19.40
2018-09-03T15:47:04.433Z,19.40
2018-09-03T15:49:32.936Z,19.30
2018-09-03T15:52:01.345Z,19.10
2018-09-03T15:54:30.125Z,19.00
2018-09-03T15:56:58.902Z,18.90
2018-09-03T15:59:27.515Z,18.90
2018-09-03T16:01:55.982Z,18.90
2018-09-03T16:04:24.448Z,18.90
2018-09-03T16:06:52.996Z,18.80
2018-09-03T16:09:21.561Z,18.80
2018-09-03T16:11:50.053Z,18.70
2018-09-03T16:14:18.663Z,18.70
2018-09-03T16:16:47.217Z,18.80
2018-09-03T16:19:15.737Z,18.80
2018-09-03T16:21:44.172Z,18.90
2018-09-03T16:24:12.544Z,18.90
2018-09-03T16:26:41.046Z,18.90
2018-09-03T16:29:09.567Z,19.00
2018-09-03T16:31:38.344Z,19.00
2018-09-03T16:34:06.936Z,18.90
2018-09-03T16:36:35.352Z,18.80
2018-09-03T16:39:04.218Z,18.80
2018-09-03T16:41:32.879Z,18.70
2018-09-03T16:44:01.360Z,18.70
2018-09-03T16:46:29.904Z,18.80
2018-09-03T16:48:58.682Z,18.80
2018-09-03T16:51:27.333Z,18.90
2018-09-03T16:53:55.861Z,19.00
2018-09-03T16:56:24.324Z,18.90
2018-09-03T16:58:52.740Z,18.90
2018-09-03T17:01:21.268Z,19.00
2018-09-03T17:03:49.569Z,18.80
2018-09-03T17:06:18.221Z,18.70
2018-09-03T17:08:46.645Z,18.50
2018-09-03T17:11:15.072Z,18.40
2018-09-03T17:13:43.608Z,18.30
2018-09-03T17:16:12.166Z,18.20
2018-09-03T17:18:40.596Z,18.10
2018-09-03T17:21:09.169Z,18.00
2018-09-03T17:23:37.739Z,17.90
2018-09-03T17:26:07.941Z,17.90
2018-09-03T17:28:36.434Z,17.80
2018-09-03T17:31:05.003Z,17.70
2018-09-03T17:33:33.435Z,17.60
2018-09-03T17:36:02.816Z,17.50
2018-09-03T17:38:36.235Z,17.50
2018-09-03T17:41:05.351Z,17.50
2018-09-03T17:43:34.890Z,17.40
2018-09-03T17:46:03.396Z,17.40
2018-09-03T17:48:31.833Z,17.30
2018-09-03T17:51:00.424Z,17.20
2018-09-03T17:53:29.036Z,17.20
2018-09-03T17:55:58.511Z,17.10
2018-09-03T17:58:27.158Z,17.10
2018-09-03T18:00:55.624Z,17.10
2018-09-03T18:03:24.112Z,17.10
2018-09-03T18:05:52.634Z,17.00
2018-09-03T18:08:21.268Z,17.00
2018-09-03T18:10:49.752Z,17.00
2018-09-03T18:13:18.281Z,17.00
2018-09-03T18:15:46.727Z,17.00
2018-09-03T18:18:15.106Z,16.90
2018-09-03T18:20:43.640Z,16.90
2018-09-03T18:23:12.083Z,16.90
2018-09-03T18:25:40.541Z,17.00
2018-09-03T18:28:09.194Z,16.90
2018-09-03T18:30:37.809Z,16.90
2018-09-03T18:33:06.287Z,16.90
2018-09-03T18:35:34.755Z,16.90
2018-09-03T18:38:03.429Z,16.80
2018-09-03T18:40:32.048Z,16.90
2018-09-03T18:43:00.545Z,16.80
2018-09-03T18:45:29.117Z,16.80
2018-09-03T18:47:57.659Z,16.80
2018-09-03T18:50:26.440Z,16.80
2018-09-03T18:52:54.913Z,16.80
2018-09-03T18:55:23.417Z,16.80
2018-09-03T18:57:51.884Z,16.80
2018-09-03T19:00:20.407Z,16.80
2018-09-03T19:02:48.866Z,16.70
2018-09-03T19:05:17.768Z,16.80
2018-09-03T19:07:46.969Z,16.70
2018-09-03T19:10:15.603Z,16.70
2018-09-03T19:12:44.048Z,16.70
2018-09-03T19:15:12.808Z,16.70
2018-09-03T19:17:41.602Z,16.70
2018-09-03T19:20:09.932Z,16.70
2018-09-03T19:22:38.235Z,16.60
2018-09-03T19:25:06.563Z,16.50
2018-09-03T19:27:34.860Z,16.50
2018-09-03T19:30:03.211Z,16.50
2018-09-03T19:32:31.530Z,16.60
2018-09-03T19:34:59.853Z,16.40
2018-09-03T19:37:28.161Z,16.30
2018-09-03T19:39:56.501Z,16.20
2018-09-03T19:42:24.840Z,16.00
2018-09-03T19:44:53.156Z,16.00
2018-09-03T19:47:21.488Z,16.00
2018-09-03T19:49:49.803Z,16.10
2018-09-03T19:52:18.123Z,16.20
2018-09-03T19:54:46.454Z,16.30
2018-09-03T19:57:14.800Z,16.30
2018-09-03T19:59:43.112Z,16.40
2018-09-03T20:02:11.435Z,16.40
2018-09-03T20:04:39.744Z,16.60
2018-09-03T20:07:08.085Z,16.60
2018-09-03T20:09:36.384Z,16.70
2018-09-03T20:12:04.745Z,16.70
2018-09-03T20:14:33.163Z,16.80
2018-09-03T20:17:01.515Z,16.80
2018-09-03T20:19:29.919Z,16.80
2018-09-03T20:21:58.252Z,16.80
2018-09-03T20:24:26.587Z,16.80
2018-09-03T20:26:54.941Z,16.80
2018-09-03T20:29:23.252Z,16.70
2018-09-03T20:31:51.609Z,16.70
2018-09-03T20:34:19.941Z,16.60
2018-09-03T20:36:48.264Z,16.60
2018-09-03T20:39:16.571Z,16.70
2018-09-03T20:41:44.896Z,16.70
2018-09-03T20:44:13.216Z,16.70
2018-09-03T20:46:41.548Z,16.70
2018-09-03T20:49:09.853Z,16.70
2018-09-03T20:51:38.232Z,16.70
2018-09-03T20:54:06.508Z,16.70
2018-09-03T20:56:34.867Z,16.70
2018-09-03T20:59:03.172Z,16.70
2018-09-03T21:01:31.636Z,16.60
2018-09-03T21:03:59.865Z,16.60
2018-09-03T21:06:28.199Z,16.50
2018-09-03T21:08:56.504Z,16.40
2018-09-03T21:11:25.092Z,16.30
2018-09-03T21:13:53.412Z,16.10
2018-09-03T21:16:21.735Z,16.10
2018-09-03T21:18:50.041Z,16.00
2018-09-03T21:21:18.367Z,16.00
2018-09-03T21:23:46.677Z,16.00
2018-09-03T21:26:15.024Z,16.00
2018-09-03T21:28:43.386Z,16.20
2018-09-03T21:31:11.680Z,16.20
2018-09-03T21:33:39.976Z,16.30
2018-09-03T21:36:08.299Z,16.40
2018-09-03T21:38:36.612Z,16.30
2018-09-03T21:41:04.975Z,16.40
2018-09-03T21:43:33.276Z,16.30
2018-09-03T21:47:30.816Z,16.30
2018-09-03T21:49:59.120Z,16.40
2018-09-03T21:52:27.452Z,16.40
2018-09-03T21:54:55.755Z,16.30
2018-09-03T21:57:24.079Z,16.30
2018-09-03T21:59:52.383Z,16.30
2018-09-03T22:02:20.704Z,16.30
2018-09-03T22:04:49.013Z,16.30
2018-09-03T22:07:17.365Z,16.30
2018-09-03T22:09:45.857Z,16.30
2018-09-03T22:12:14.176Z,16.30
2018-09-03T22:14:42.484Z,16.40
2018-09-03T22:17:10.812Z,16.40
2018-09-03T22:19:39.112Z,16.40
2018-09-03T22:22:07.439Z,16.20
2018-09-03T22:24:35.763Z,16.10
2018-09-03T22:27:04.088Z,16.00
2018-09-03T22:29:32.405Z,16.00
2018-09-03T22:32:00.732Z,16.00
2018-09-03T22:34:29.025Z,16.10
2018-09-03T22:36:57.364Z,16.20
2018-09-03T22:39:26.096Z,16.30
2018-09-03T22:41:54.558Z,16.40
2018-09-03T22:44:22.932Z,16.50
2018-09-03T22:46:51.254Z,16.50
2018-09-03T22:49:19.568Z,16.40
2018-09-03T22:51:47.904Z,16.40
2018-09-03T22:54:16.209Z,16.40
2018-09-03T22:56:44.532Z,16.30
2018-09-03T22:59:12.839Z,16.30
2018-09-03T23:01:41.261Z,16.30
2018-09-03T23:04:09.576Z,16.40
2018-09-03T23:06:37.923Z,16.40
2018-09-03T23:09:07.012Z,16.40
2018-09-03T23:11:35.411Z,16.40
2018-09-03T23:14:03.735Z,16.30
2018-09-03T23:16:32.064Z,16.20
2018-09-03T23:19:00.400Z,15.90
2018-09-03T23:21:28.706Z,15.80
2018-09-03T23:23:57.031Z,15.70
2018-09-03T23:26:25.652Z,15.70
2018-09-03T23:28:53.985Z,15.80
2018-09-03T23:31:22.336Z,15.70
2018-09-03T23:33:50.664Z,15.80
2018-09-03T23:36:18.987Z,15.90
2018-09-03T23:38:47.312Z,15.90
2018-09-03T23:41:15.611Z,15.90
2018-09-03T23:43:43.981Z,15.90
2018-09-03T23:46:12.289Z,15.90
2018-09-03T23:48:40.649Z,15.90
2018-09-03T23:51:08.944Z,15.80
2018-09-03T23:53:37.269Z,15.80
2018-09-03T23:56:05.572Z,15.70
2018-09-03T23:58:33.892Z,15.60
